Airfield :







YOU CAN JOIN US ON...

 
LOGIN :

Register | Disclaimer

   EN    FR    IT 

 









Legend :    VFR   Marginal VFR   IFR   Intensive IFR   Very Intensive IFR
Visi :
Ceiling :
>= 8 km
>= 3000ft
5 to 8 km
1000 to 3000 ft
1500m to 5 km
500 to 1000 ft
800 to 1500m
200 to 500 ft
< 800m
< 200 ft
Symbols :   Thunderstorms  Fog  Heavy snow  Heavy precipitations  Wind > 20 kt






- Airport Elevation : 603 ft
- IATA code : LEB


KLEB - Lebanon Municipal

CURRENT METAR :
  • 292012Z 35004KT 2SM -RA BR FEW001 BKN026 OVC032 07/05 A2979 RMK AO2 P0002 T00670050

EXPIRED METARs :
  • 292000Z 35003KT 2SM -RA BR BKN001 OVC024 07/05 A2980 RMK AO2 P0001 T00670050
  • 291953Z 35003KT 2 1/2SM -RA BR BKN003 BKN022 OVC030 07/05 A2980 RMK AO2 SLP097 P0002 T00670050
  • 291853Z 01003KT 2 1/2SM -RA BR BKN003 BKN025 OVC033 07/04 A2982 RMK AO2 SLP101 P0007 T00670044
  • 291800Z 00000KT 2 1/2SM -RA BR BKN003 BKN025 OVC033 06/04 A2984 RMK AO2 P0001 T00610039
  • 291744Z 00000KT 3SM -RA BR SCT001 OVC033 06/04 A2983 RMK AO2 RAB1658 P0002 T00610044
  • 291738Z 00000KT 2 1/2SM -RA BR SCT001 BKN007 OVC034 06/04 A2983 RMK AO2 RAB1658 P0001 T00610044

TAF KLEB
Valid from the 29 at 18:00 until the 30 at 18:00 UTC


291757Z 2918/3018 VRB03KT 2SM -RA BR BKN001 OVC030
FM292200 36003KT 3SM -RA BR OVC006
FM300500 01006KT 1 1/2SM -SN OVC006
FM301400 35008KT P6SM OVC025
KZBW FIR / North America



MET'MAP, your aeronautical weather chart ! - Copyright ORBIFLY December 2007 - Disclaimer

ORBIFLY MET'MAP TEAM :

Programming & Development : Alexandra Zaïnal
Concept & original design : Baudouin d'Aumeries
Assistance for programming : Marc-Olivier Méhu
Technical & hardware support : Manuel Goepfert

Contact : metmap@orbifly.com




SOURCES & CREDITS :

   NOAA